createdAt,value
2018-07-22T00:01:03.674Z,99933.02
2018-07-22T00:03:33.636Z,99929.76
2018-07-22T00:06:03.519Z,99934.32
2018-07-22T00:08:33.535Z,99928.16
2018-07-22T00:11:03.421Z,99928.77
2018-07-22T00:13:33.728Z,99926.56
2018-07-22T00:16:03.920Z,99934.92
2018-07-22T00:18:33.941Z,99930.38
2018-07-22T00:21:03.679Z,99937.14
2018-07-22T00:23:33.687Z,99936.34
2018-07-22T00:26:03.593Z,99932.59
2018-07-22T00:28:33.674Z,99936.64
2018-07-22T00:31:03.392Z,99941.84
2018-07-22T00:33:33.312Z,99938.05
2018-07-22T00:36:03.022Z,99936.69
2018-07-22T00:38:32.762Z,99938.80
2018-07-22T00:41:02.384Z,99943.19
2018-07-22T00:43:32.211Z,99944.26
2018-07-22T00:46:01.839Z,99939.70
2018-07-22T00:48:31.506Z,99937.29
2018-07-22T00:51:01.134Z,99933.99
2018-07-22T00:53:30.868Z,99929.73
2018-07-22T00:56:00.627Z,99930.53
2018-07-22T00:58:30.419Z,99934.64
2018-07-22T01:01:00.145Z,99937.30
2018-07-22T01:03:29.791Z,99934.94
2018-07-22T01:05:59.593Z,99931.38
2018-07-22T01:08:30.129Z,99937.39
2018-07-22T01:11:00.041Z,99938.75
2018-07-22T01:13:29.769Z,99938.45
2018-07-22T01:15:59.406Z,99934.64
2018-07-22T01:18:29.078Z,99942.25
2018-07-22T01:20:58.979Z,99942.56
2018-07-22T01:23:28.677Z,99938.80
2018-07-22T01:25:58.361Z,99940.95
2018-07-22T01:28:28.047Z,99942.61
2018-07-22T01:30:57.661Z,99943.64
2018-07-22T01:33:27.311Z,99941.45
2018-07-22T01:35:57.536Z,99947.45
2018-07-22T01:38:27.729Z,99943.16
2018-07-22T01:40:57.528Z,99938.80
2018-07-22T01:43:27.883Z,99940.99
2018-07-22T01:45:58.026Z,99944.20
2018-07-22T01:48:27.675Z,99941.25
2018-07-22T01:50:57.453Z,99939.41
2018-07-22T01:53:28.165Z,99945.64
2018-07-22T01:55:57.843Z,99937.53
2018-07-22T01:58:27.888Z,99941.80
2018-07-22T02:00:57.761Z,99938.05
2018-07-22T02:03:27.397Z,99943.14
2018-07-22T02:05:57.853Z,99941.55
2018-07-22T02:08:27.508Z,99940.70
2018-07-22T02:10:57.328Z,99941.04
2018-07-22T02:13:27.686Z,99936.69
2018-07-22T02:15:58.020Z,99935.55
2018-07-22T02:18:27.681Z,99937.14
2018-07-22T02:20:57.879Z,99933.14
2018-07-22T02:23:28.512Z,99943.16
2018-07-22T02:25:58.760Z,99939.05
2018-07-22T02:28:28.466Z,99940.99
2018-07-22T02:30:58.224Z,99943.36
2018-07-22T02:33:27.883Z,99946.40
2018-07-22T02:35:57.728Z,99948.50
2018-07-22T02:38:27.570Z,99941.75
2018-07-22T02:40:57.602Z,99938.80
2018-07-22T02:43:27.219Z,99946.40
2018-07-22T02:45:56.918Z,99954.77
2018-07-22T02:48:26.764Z,99947.16
2018-07-22T02:50:57.564Z,99950.46
2018-07-22T02:53:27.223Z,99946.70
2018-07-22T02:55:56.992Z,99947.84
2018-07-22T02:58:26.997Z,99944.30
2018-07-22T03:00:57.435Z,99948.95
2018-07-22T03:03:27.151Z,99945.73
2018-07-22T03:05:56.751Z,99948.78
2018-07-22T03:08:27.332Z,99953.67
2018-07-22T03:10:57.214Z,99953.72
2018-07-22T03:13:26.881Z,99955.40
2018-07-22T03:15:56.731Z,99961.05
2018-07-22T03:18:27.133Z,99959.45
2018-07-22T03:20:57.056Z,99955.69
2018-07-22T03:23:26.888Z,99963.80
2018-07-22T03:25:56.683Z,99966.78
2018-07-22T03:28:27.113Z,99960.03
2018-07-22T03:30:56.847Z,99957.59
2018-07-22T03:33:26.722Z,99966.50
2018-07-22T03:35:57.141Z,99971.41
2018-07-22T03:38:26.899Z,99975.17
2018-07-22T03:40:56.853Z,99966.56
2018-07-22T03:43:26.586Z,99974.44
2018-07-22T03:45:57.359Z,99975.84
2018-07-22T03:48:27.180Z,99972.34
2018-07-22T03:50:56.918Z,99978.23
2018-07-22T03:53:26.784Z,99980.41
2018-07-22T03:55:56.567Z,99979.83
2018-07-22T03:58:27.143Z,99986.12
2018-07-22T04:00:57.007Z,99985.86
2018-07-22T04:03:26.794Z,99987.49
2018-07-22T04:06:03.965Z,99986.17
2018-07-22T04:08:33.690Z,99982.92
2018-07-22T04:11:03.395Z,99991.63
2018-07-22T04:13:33.102Z,99987.56
2018-07-22T04:16:03.434Z,99985.98
2018-07-22T04:18:33.604Z,99989.19
2018-07-22T04:21:03.289Z,99988.67
2018-07-22T04:23:32.980Z,99991.94
2018-07-22T04:26:02.745Z,99993.78
2018-07-22T04:28:32.450Z,99999.50
2018-07-22T04:31:02.909Z,99997.30
2018-07-22T04:33:32.539Z,100002.72
2018-07-22T04:36:02.805Z,100004.09
2018-07-22T04:38:33.036Z,100005.95
2018-07-22T04:41:02.765Z,100008.14
2018-07-22T04:43:32.579Z,100007.84
2018-07-22T04:46:02.578Z,100018.66
2018-07-22T04:48:32.389Z,100019.75
2018-07-22T04:51:02.256Z,100021.08
2018-07-22T04:53:33.321Z,100026.22
2018-07-22T04:56:03.561Z,100020.04
2018-07-22T04:58:33.936Z,100025.13
2018-07-22T05:01:03.881Z,100028.33
2018-07-22T05:03:34.360Z,100027.05
2018-07-22T05:06:05.377Z,100037.28
2018-07-22T05:08:35.165Z,100030.56
2018-07-22T05:11:04.974Z,100040.80
2018-07-22T05:13:34.947Z,100039.97
2018-07-22T05:16:05.203Z,100047.52
2018-07-22T05:18:35.256Z,100051.05
2018-07-22T05:21:05.407Z,100052.11
2018-07-22T05:23:35.835Z,100037.25
2018-07-22T05:26:06.109Z,100053.17
2018-07-22T05:28:35.800Z,100047.23
2018-07-22T05:31:05.493Z,100039.40
2018-07-22T05:33:35.534Z,100040.20
2018-07-22T05:36:05.738Z,100048.33
2018-07-22T05:38:35.476Z,100040.00
2018-07-22T05:41:05.345Z,100042.41
2018-07-22T05:43:35.319Z,100039.47
2018-07-22T05:46:05.203Z,100042.09
2018-07-22T05:48:36.632Z,100053.45
2018-07-22T05:51:06.455Z,100055.33
2018-07-22T05:53:36.379Z,100061.28
2018-07-22T05:56:07.434Z,100059.41
2018-07-22T05:58:37.581Z,100065.88
2018-07-22T06:01:07.669Z,100062.61
2018-07-22T06:03:37.765Z,100069.61
2018-07-22T06:06:08.034Z,100073.68
2018-07-22T06:08:38.119Z,100070.70
2018-07-22T06:11:08.157Z,100070.08
2018-07-22T06:13:37.994Z,100069.23
2018-07-22T06:16:08.251Z,100070.62
2018-07-22T06:18:38.106Z,100066.69
2018-07-22T06:21:08.076Z,100065.73
2018-07-22T06:23:37.839Z,100069.28
2018-07-22T06:26:07.763Z,100065.89
2018-07-22T06:28:37.555Z,100065.88
2018-07-22T06:31:07.568Z,100068.33
2018-07-22T06:33:37.359Z,100067.70
2018-07-22T06:36:07.765Z,100069.53
2018-07-22T06:38:37.776Z,100073.51
2018-07-22T06:41:07.693Z,100076.10
2018-07-22T06:43:37.401Z,100074.06
2018-07-22T06:46:07.517Z,100076.12
2018-07-22T06:48:37.358Z,100083.87
2018-07-22T06:51:07.826Z,100082.48
2018-07-22T06:53:37.671Z,100076.31
2018-07-22T06:56:07.560Z,100084.24
2018-07-22T06:58:37.390Z,100085.63
2018-07-22T07:01:07.194Z,100087.96
2018-07-22T07:03:37.000Z,100090.45
2018-07-22T07:06:06.954Z,100089.70
2018-07-22T07:08:37.101Z,100093.09
2018-07-22T07:11:07.616Z,100082.48
2018-07-22T07:13:37.499Z,100088.98
2018-07-22T07:16:07.544Z,100091.62
2018-07-22T07:18:37.912Z,100097.83
2018-07-22T07:21:08.464Z,100109.68
2018-07-22T07:23:39.487Z,100100.29
2018-07-22T07:26:09.328Z,100104.67
2018-07-22T07:28:39.085Z,100115.16
2018-07-22T07:31:09.896Z,100117.38
2018-07-22T07:33:40.308Z,100117.13
2018-07-22T07:36:10.009Z,100113.40
2018-07-22T07:38:39.650Z,100121.63
2018-07-22T07:41:09.461Z,100125.20
2018-07-22T07:43:39.212Z,100123.06
2018-07-22T07:46:09.264Z,100115.25
2018-07-22T07:48:38.974Z,100116.66
2018-07-22T07:51:08.786Z,100126.78
2018-07-22T07:53:38.875Z,100127.33
2018-07-22T07:56:08.694Z,100125.08
2018-07-22T07:58:38.459Z,100131.55
2018-07-22T08:01:08.184Z,100137.66
2018-07-22T08:03:37.777Z,100136.20
2018-07-22T08:06:07.701Z,100141.80
2018-07-22T08:08:38.096Z,100142.13
2018-07-22T08:11:07.895Z,100142.16
2018-07-22T08:13:37.530Z,100136.09
2018-07-22T08:16:07.684Z,100148.70
2018-07-22T08:18:37.426Z,100150.86
2018-07-22T08:21:09.423Z,100152.24
2018-07-22T08:23:39.144Z,100150.61
2018-07-22T08:26:08.851Z,100153.98
2018-07-22T08:29:29.406Z,100148.35
2018-07-22T08:31:59.294Z,100152.83
2018-07-22T08:34:29.133Z,100146.30
2018-07-22T08:36:59.170Z,100150.14
2018-07-22T08:39:29.829Z,100150.21
2018-07-22T08:41:59.991Z,100155.96
2018-07-22T08:44:30.084Z,100151.59
2018-07-22T08:46:59.739Z,100160.75
2018-07-22T08:49:29.428Z,100155.59
2018-07-22T08:51:59.091Z,100156.94
2018-07-22T08:54:28.791Z,100154.53
2018-07-22T08:56:58.475Z,100153.18
2018-07-22T08:59:28.234Z,100157.72
2018-07-22T09:01:57.896Z,100154.08
2018-07-22T09:04:27.552Z,100158.11
2018-07-22T09:06:57.299Z,100156.97
2018-07-22T09:09:27.481Z,100163.97
2018-07-22T09:11:57.804Z,100159.89
2018-07-22T09:14:27.571Z,100174.83
2018-07-22T09:16:57.153Z,100167.67
2018-07-22T09:19:26.819Z,100173.77
2018-07-22T09:21:56.396Z,100175.53
2018-07-22T09:24:26.153Z,100169.92
2018-07-22T09:26:55.815Z,100176.98
2018-07-22T09:29:25.455Z,100174.32
2018-07-22T09:31:55.159Z,100173.58
2018-07-22T09:34:25.008Z,100179.81
2018-07-22T09:36:54.706Z,100180.05
2018-07-22T09:39:24.361Z,100179.41
2018-07-22T09:41:54.036Z,100175.02
2018-07-22T09:44:23.636Z,100189.84
2018-07-22T09:46:53.405Z,100175.77
2018-07-22T09:49:22.771Z,100183.66
2018-07-22T09:51:52.529Z,100175.69
2018-07-22T09:54:22.465Z,100183.20
2018-07-22T09:56:52.100Z,100188.12
2018-07-22T09:59:22.452Z,100186.92
2018-07-22T10:01:58.813Z,100185.84
2018-07-22T10:04:28.607Z,100181.78
2018-07-22T10:06:58.401Z,100185.38
2018-07-22T10:09:28.161Z,100181.73
2018-07-22T10:11:57.995Z,100175.20
2018-07-22T10:14:27.345Z,100173.45
2018-07-22T10:16:56.993Z,100179.76
2018-07-22T10:19:26.335Z,100175.95
2018-07-22T10:21:56.007Z,100175.11
2018-07-22T10:24:25.739Z,100173.16
2018-07-22T10:26:55.963Z,100181.30
2018-07-22T10:29:25.880Z,100181.66
2018-07-22T10:31:55.733Z,100184.59
2018-07-22T10:34:25.738Z,100186.30
2018-07-22T10:36:55.753Z,100183.73
2018-07-22T10:39:25.617Z,100183.31
2018-07-22T10:41:56.158Z,100185.03
2018-07-22T10:44:26.148Z,100182.80
2018-07-22T10:46:55.899Z,100186.98
2018-07-22T10:49:26.003Z,100185.02
2018-07-22T10:51:55.674Z,100182.80
2018-07-22T10:54:25.518Z,100185.66
2018-07-22T10:56:55.552Z,100177.57
2018-07-22T10:59:25.823Z,100178.84
2018-07-22T11:01:55.681Z,100174.67
2018-07-22T11:04:25.803Z,100175.87
2018-07-22T11:06:55.469Z,100173.66
2018-07-22T11:09:26.050Z,100169.73
2018-07-22T11:11:56.076Z,100162.92
2018-07-22T11:14:26.113Z,100164.87
2018-07-22T11:16:55.787Z,100161.47
2018-07-22T11:19:25.708Z,100167.56
2018-07-22T11:21:55.324Z,100154.31
2018-07-22T11:24:25.833Z,100155.11
2018-07-22T11:26:55.627Z,100162.62
2018-07-22T11:29:25.316Z,100162.83
2018-07-22T11:31:55.038Z,100161.66
2018-07-22T11:34:25.376Z,100151.44
2018-07-22T11:36:55.806Z,100154.02
2018-07-22T11:39:25.616Z,100160.16
2018-07-22T11:41:55.920Z,100154.31
2018-07-22T11:44:26.336Z,100148.23
2018-07-22T11:46:56.073Z,100151.23
2018-07-22T11:49:25.692Z,100145.44
2018-07-22T11:51:55.413Z,100144.97
2018-07-22T11:54:25.113Z,100143.27
2018-07-22T11:56:55.094Z,100144.15
2018-07-22T11:59:24.772Z,100137.30
2018-07-22T12:01:54.858Z,100143.56
2018-07-22T12:04:25.213Z,100138.94
2018-07-22T12:06:55.141Z,100122.13
2018-07-22T12:09:24.764Z,100128.64
2018-07-22T12:11:54.527Z,100136.94
2018-07-22T12:14:24.167Z,100137.47
2018-07-22T12:16:53.895Z,100128.08
2018-07-22T12:19:23.602Z,100130.91
2018-07-22T12:21:53.291Z,100132.28
2018-07-22T12:24:23.444Z,100127.84
2018-07-22T12:26:53.773Z,100130.98
2018-07-22T12:29:23.436Z,100136.66
2018-07-22T12:31:53.160Z,100125.69
2018-07-22T12:34:22.966Z,100126.32
2018-07-22T12:36:52.856Z,100121.32
2018-07-22T12:39:23.105Z,100123.13
2018-07-22T12:41:52.903Z,100121.88
2018-07-22T12:44:24.047Z,100129.45
2018-07-22T12:46:54.289Z,100122.91
2018-07-22T12:49:24.699Z,100122.46
2018-07-22T12:51:54.380Z,100120.03
2018-07-22T12:54:24.388Z,100123.52
2018-07-22T12:56:54.203Z,100123.19
2018-07-22T12:59:24.143Z,100122.22
2018-07-22T13:01:54.588Z,100116.94
2018-07-22T13:04:24.485Z,100117.87
2018-07-22T13:06:58.028Z,100123.49
2018-07-22T13:09:27.824Z,100126.23
2018-07-22T13:11:57.451Z,100127.67
2018-07-22T13:14:27.080Z,100121.31
2018-07-22T13:16:56.945Z,100125.33
2018-07-22T13:19:26.816Z,100124.08
2018-07-22T13:21:56.541Z,100129.15
2018-07-22T13:24:28.367Z,100124.36
2018-07-22T13:26:58.265Z,100123.61
2018-07-22T13:29:28.122Z,100116.13
2018-07-22T13:31:58.789Z,100117.50
2018-07-22T13:34:28.422Z,100120.69
2018-07-22T13:36:58.084Z,100126.30
2018-07-22T13:39:27.781Z,100119.09
2018-07-22T13:41:57.426Z,100113.10
2018-07-22T13:44:27.715Z,100116.81
2018-07-22T13:46:57.342Z,100121.95
2018-07-22T13:49:27.302Z,100118.37
2018-07-22T13:51:57.063Z,100120.16
2018-07-22T13:54:33.304Z,100121.67
2018-07-22T13:57:03.647Z,100119.20
2018-07-22T13:59:33.776Z,100121.05
2018-07-22T14:02:03.577Z,100123.31
2018-07-22T14:04:36.253Z,100133.78
2018-07-22T14:07:06.015Z,100138.86
2018-07-22T14:09:35.750Z,100137.14
2018-07-22T14:12:05.725Z,100131.05
2018-07-22T14:14:35.267Z,100132.03
2018-07-22T14:17:04.957Z,100133.75
2018-07-22T14:19:34.602Z,100128.15
2018-07-22T14:22:04.259Z,100131.44
2018-07-22T14:24:34.054Z,100143.22
2018-07-22T14:27:03.960Z,100148.06
2018-07-22T14:29:33.602Z,100149.13
2018-07-22T14:32:03.375Z,100146.19
2018-07-22T14:34:32.997Z,100142.00
2018-07-22T14:37:02.821Z,100154.25
2018-07-22T14:39:32.537Z,100150.09
2018-07-22T14:42:02.257Z,100151.20
2018-07-22T14:44:31.931Z,100155.45
2018-07-22T14:47:01.786Z,100148.70
2018-07-22T14:49:31.361Z,100140.30
2018-07-22T14:52:01.328Z,100137.86
2018-07-22T14:54:31.802Z,100144.23
2018-07-22T14:57:01.530Z,100147.19
2018-07-22T14:59:31.868Z,100139.74
2018-07-22T15:02:01.741Z,100148.27
2018-07-22T15:04:32.363Z,100145.61
2018-07-22T15:07:02.065Z,100146.09
2018-07-22T15:09:31.916Z,100142.13
2018-07-22T15:12:01.786Z,100143.67
2018-07-22T15:14:31.530Z,100144.98
2018-07-22T15:17:01.311Z,100141.50
2018-07-22T15:19:31.038Z,100136.27
2018-07-22T15:22:00.855Z,100141.00
2018-07-22T15:24:31.457Z,100141.21
2018-07-22T15:27:01.146Z,100138.11
2018-07-22T15:29:31.027Z,100144.47
2018-07-22T15:32:00.871Z,100137.28
2018-07-22T15:34:30.599Z,100138.64
2018-07-22T15:37:00.453Z,100143.31
2018-07-22T15:39:30.199Z,100144.23
2018-07-22T15:41:59.981Z,100149.92
2018-07-22T15:44:29.924Z,100154.36
2018-07-22T15:46:59.548Z,100145.20
2018-07-22T15:49:29.264Z,100141.39
2018-07-22T15:51:58.976Z,100143.44
2018-07-22T15:54:28.646Z,100143.99
2018-07-22T15:56:58.283Z,100144.05
2018-07-22T15:59:27.952Z,100143.31
2018-07-22T16:02:00.118Z,100139.45
2018-07-22T16:04:29.916Z,100130.11
2018-07-22T16:06:59.651Z,100131.00
2018-07-22T16:09:29.356Z,100130.00
2018-07-22T16:11:59.720Z,100132.95
2018-07-22T16:14:29.606Z,100132.25
2018-07-22T16:16:59.282Z,100132.17
2018-07-22T16:19:29.596Z,100133.03
2018-07-22T16:21:59.218Z,100126.82
2018-07-22T16:24:28.974Z,100132.68
2018-07-22T16:26:58.759Z,100133.72
2018-07-22T16:29:28.407Z,100135.02
2018-07-22T16:31:58.225Z,100130.98
2018-07-22T16:34:28.895Z,100132.28
2018-07-22T16:36:58.624Z,100126.25
2018-07-22T16:39:28.364Z,100134.51
2018-07-22T16:41:57.995Z,100123.98
2018-07-22T16:44:27.571Z,100119.66
2018-07-22T16:46:57.799Z,100123.98
2018-07-22T16:49:27.608Z,100130.65
2018-07-22T16:51:57.804Z,100132.18
2018-07-22T16:54:27.445Z,100134.58
2018-07-22T16:56:57.227Z,100132.34
2018-07-22T16:59:26.869Z,100134.65
2018-07-22T17:01:56.610Z,100128.23
2018-07-22T17:04:25.983Z,100138.00
2018-07-22T17:06:55.543Z,100132.28
2018-07-22T17:09:25.299Z,100128.23
2018-07-22T17:11:55.461Z,100138.52
2018-07-22T17:14:24.715Z,100126.78
2018-07-22T17:16:54.642Z,100130.92
2018-07-22T17:19:24.341Z,100134.55
2018-07-22T17:21:54.404Z,100137.16
2018-07-22T17:24:24.649Z,100131.76
2018-07-22T17:26:54.692Z,100132.23
2018-07-22T17:29:24.781Z,100131.28
2018-07-22T17:31:54.830Z,100127.99
2018-07-22T17:34:24.469Z,100134.72
2018-07-22T17:36:54.446Z,100142.10
2018-07-22T17:39:24.180Z,100136.63
2018-07-22T17:41:54.057Z,100136.70
2018-07-22T17:44:23.782Z,100137.80
2018-07-22T17:46:53.854Z,100140.66
2018-07-22T17:49:23.550Z,100143.94
2018-07-22T17:51:53.998Z,100148.30
2018-07-22T17:54:23.755Z,100139.79
2018-07-22T17:56:53.516Z,100145.56
2018-07-22T17:59:23.283Z,100153.10
2018-07-22T18:01:57.971Z,100155.37
2018-07-22T18:04:30.562Z,100147.85
2018-07-22T18:07:00.406Z,100148.94
2018-07-22T18:09:30.019Z,100152.87
2018-07-22T18:11:59.749Z,100151.63
2018-07-22T18:14:29.397Z,100150.59
2018-07-22T18:16:59.048Z,100152.66
2018-07-22T18:19:28.690Z,100154.72
2018-07-22T18:21:59.092Z,100155.28
2018-07-22T18:24:28.747Z,100155.19
2018-07-22T18:26:58.726Z,100157.91
2018-07-22T18:29:28.359Z,100153.21
2018-07-22T18:31:58.281Z,100159.14
2018-07-22T18:34:28.061Z,100153.58
2018-07-22T18:36:58.172Z,100161.00
2018-07-22T18:39:28.194Z,100159.29
2018-07-22T18:41:58.188Z,100163.80
2018-07-22T18:44:27.860Z,100162.88
2018-07-22T18:46:58.074Z,100167.20
2018-07-22T18:49:28.131Z,100169.77
2018-07-22T18:51:58.245Z,100174.09
2018-07-22T18:54:28.173Z,100172.78
2018-07-22T18:56:58.370Z,100178.03
2018-07-22T18:59:28.305Z,100184.48
2018-07-22T19:01:58.638Z,100187.08
2018-07-22T19:04:28.674Z,100188.80
2018-07-22T19:06:59.068Z,100188.36
2018-07-22T19:09:29.241Z,100193.39
2018-07-22T19:11:59.592Z,100193.41
2018-07-22T19:14:29.739Z,100190.48
2018-07-22T19:17:00.133Z,100195.17
2018-07-22T19:19:30.345Z,100200.09
2018-07-22T19:22:00.800Z,100203.95
2018-07-22T19:24:30.771Z,100210.44
2018-07-22T19:27:02.622Z,100211.98
2018-07-22T19:29:32.716Z,100212.64
2018-07-22T19:32:03.101Z,100214.86
2018-07-22T19:34:33.727Z,100219.30
2018-07-22T19:37:03.661Z,100225.53
2018-07-22T19:39:34.535Z,100229.69
2018-07-22T19:42:04.895Z,100233.08
2018-07-22T19:44:34.901Z,100238.95
2018-07-22T19:47:04.878Z,100236.11
2018-07-22T19:49:34.916Z,100235.09
2018-07-22T19:52:05.661Z,100240.00
2018-07-22T19:54:35.720Z,100238.30
2018-07-22T19:57:05.678Z,100241.95
2018-07-22T19:59:35.710Z,100249.67
2018-07-22T20:02:05.726Z,100252.30
2018-07-22T20:04:35.692Z,100247.77
2018-07-22T20:07:05.825Z,100254.66
2018-07-22T20:09:35.928Z,100257.46
2018-07-22T20:12:06.061Z,100255.95
2018-07-22T20:14:36.184Z,100259.33
2018-07-22T20:17:06.703Z,100261.13
2018-07-22T20:19:37.462Z,100270.16
2018-07-22T20:22:07.397Z,100268.41
2018-07-22T20:24:37.433Z,100273.20
2018-07-22T20:27:06.883Z,100276.40
2018-07-22T20:29:36.761Z,100279.89
2018-07-22T20:32:07.030Z,100279.11
2018-07-22T20:34:37.550Z,100279.19
2018-07-22T20:37:08.039Z,100278.94
2018-07-22T20:39:37.881Z,100280.06
2018-07-22T20:42:07.902Z,100285.34
2018-07-22T20:44:37.840Z,100283.43
2018-07-22T20:47:08.816Z,100288.75
2018-07-22T20:49:38.217Z,100291.03
2018-07-22T20:52:08.301Z,100292.20
2018-07-22T20:54:37.994Z,100296.66
2018-07-22T20:57:08.105Z,100296.77
2018-07-22T20:59:38.473Z,100295.67
2018-07-22T21:02:08.763Z,100305.80
2018-07-22T21:04:38.857Z,100310.17
2018-07-22T21:07:08.829Z,100313.01
2018-07-22T21:09:38.498Z,100309.54
2018-07-22T21:12:51.261Z,100308.72
2018-07-22T21:15:20.911Z,100304.47
2018-07-22T21:17:51.416Z,100309.20
2018-07-22T21:20:22.040Z,100302.28
2018-07-22T21:22:54.678Z,100309.38
2018-07-22T21:25:24.339Z,100306.51
2018-07-22T21:27:54.178Z,100306.71
2018-07-22T21:30:24.327Z,100312.95
2018-07-22T21:32:54.130Z,100317.86
2018-07-22T21:35:24.221Z,100315.89
2018-07-22T21:37:54.439Z,100318.51
2018-07-22T21:40:24.765Z,100318.30
2018-07-22T21:42:54.519Z,100316.83
2018-07-22T21:45:23.810Z,100314.48
2018-07-22T21:47:53.541Z,100314.25
2018-07-22T21:50:23.281Z,100314.05
2018-07-22T21:52:53.583Z,100313.00
2018-07-22T21:55:23.268Z,100315.50
2018-07-22T21:57:53.082Z,100318.27
2018-07-22T22:00:30.193Z,100328.15
2018-07-22T22:03:01.604Z,100323.62
2018-07-22T22:05:31.467Z,100322.58
2018-07-22T22:08:01.226Z,100325.92
2018-07-22T22:10:30.952Z,100325.13
2018-07-22T22:13:00.601Z,100331.11
2018-07-22T22:15:32.085Z,100324.93
2018-07-22T22:18:03.805Z,100328.19
2018-07-22T22:20:33.701Z,100329.03
2018-07-22T22:23:03.648Z,100326.36
2018-07-22T22:25:33.347Z,100325.31
2018-07-22T22:28:03.081Z,100327.22
2018-07-22T22:30:33.814Z,100323.16
2018-07-22T22:33:03.641Z,100319.16
2018-07-22T22:35:39.516Z,100322.61
2018-07-22T22:38:09.746Z,100321.54
2018-07-22T22:40:39.996Z,100324.87
2018-07-22T22:43:09.666Z,100332.41
2018-07-22T22:45:39.298Z,100325.17
2018-07-22T22:48:09.011Z,100331.89
2018-07-22T22:50:39.024Z,100327.61
2018-07-22T22:53:08.528Z,100327.03
2018-07-22T22:55:38.293Z,100327.06
2018-07-22T22:58:24.917Z,100322.82
2018-07-22T23:00:54.978Z,100327.39
2018-07-22T23:03:25.018Z,100330.39
2018-07-22T23:05:56.028Z,100326.36
2018-07-22T23:08:25.774Z,100318.56
2018-07-22T23:10:55.634Z,100322.91
2018-07-22T23:13:25.373Z,100326.22
2018-07-22T23:15:55.424Z,100321.36
2018-07-22T23:18:25.072Z,100319.22
2018-07-22T23:20:54.737Z,100317.09
2018-07-22T23:23:24.436Z,100312.51
2018-07-22T23:25:54.386Z,100317.02
2018-07-22T23:28:24.119Z,100314.62
2018-07-22T23:30:53.790Z,100317.89
2018-07-22T23:33:23.624Z,100322.16
2018-07-22T23:35:53.348Z,100320.05
2018-07-22T23:38:22.908Z,100315.23
2018-07-22T23:40:52.517Z,100313.84
2018-07-22T23:43:22.384Z,100316.09
2018-07-22T23:45:52.031Z,100313.69
2018-07-22T23:48:22.333Z,100317.98
2018-07-22T23:50:51.983Z,100316.08
2018-07-22T23:53:22.059Z,100318.28
2018-07-22T23:55:51.455Z,100316.68
2018-07-22T23:58:22.189Z,100327.00
